To NAV CANADA Home Page Login to a new session Search on AWWS site Feedback and Comments Disclaimer Vers la page française équivalente Tips FAQ What's new on the site To the Forecasts and Observations / NOTAM section To "File a Flight Plan" website Publications and other links Update of the User's profile FIC Telephone Numbers My Weather Data Folder Route Weather Data Regional Weather Data Local Weather Data To the Forecasts and Observations / NOTAM section
Request Generated 05/26/2015 at 15:22:58 UTC . Weather information available at that time is displayed.

METAR/TAF

GREENWOOD/NS    

METAR CYZX 261500Z 23014KT 15SM SCT014 BKN060 18/15 A3011 RMK SC3SC4 WNDY HILL 23010G27KT SLP198=
SPECI CYZX 261444Z 21009KT 15SM SCT014 BKN062 17/15 A3011 RMK SC3SC4 WNDY HILL 21012KT SLP197=
SPECI CYZX 261429Z 22009KT 15SM BKN012 BKN058 16/14 A3012 RMK SC5SC2 WNDY HILL 21012G18KT SLP201=
METAR CYZX 261400Z 21008KT 10SM -SHRA BKN014 OVC056 15/14 A3013 RMK SC6SC2 WNDY HILL 20015KT PCPN VRY LGT SLP202=
SPECI CYZX 261337Z 22007KT 6SM -SHRA BR OVC014 15/14 A3013 RMK SC8 WNDY HILL 20012G19KT SLP203=
METAR CYZX 261300Z 21007KT 3SM -SHRA BR OVC014 15/14 A3013 RMK SC8 WNDY HILL 21013G18KT SLP205=

TAF AMD CYZX 261308Z 2613/2712 20008KT P6SM -SHRA SCT012 OVC050 TEMPO
2613/2616 3SM -SHRA BR OVC012 PROB30 2613/2616 2SM -DZ BR OVC008
FM261600 20010G20KT P6SM SCT020 OVC070 TEMPO 2616/2618 OVC020
FM262000 22015G25KT P6SM SCT070
BECMG 2702/2704 22008KT FEW070
RMK NXT FCST BY 261800Z=
Your time UTC time
Weather data provided by Environment Canada and NAV CANADA